Time;durP1;ratioP1;P1;durP2;ratioP2;P2;SDS_P1;SDS_P2;PMS_P1;PMS_P2;Temp;Humidity;BMP_temperature;BMP_pressure;BME280_temperature;BME280_humidity;BME280_pressure;Samples;Min_cycle;Max_cycle;Signal;HPM_P1;HPM_P2
2023/10/07 00:02:30;;;;;;;3.43;1.87;;;;;;;-146.25;100.00;57403.91;4913589;29;20741;-85
2023/10/07 00:05:04;;;;;;;3.67;2.13;;;;;;;-146.25;100.00;57403.91;4913790;29;20213;-85
2023/10/07 00:07:34;;;;;;;1.67;1.57;;;;;;;-146.25;100.00;57403.91;4914252;29;20268;-85
2023/10/07 00:10:05;;;;;;;3.40;2.27;;;;;;;-146.25;100.00;57403.91;4917484;29;20209;-84
2023/10/07 00:12:36;;;;;;;1.97;1.80;;;;;;;-146.25;100.00;57403.91;4902369;29;20225;-84
2023/10/07 00:15:11;;;;;;;8.30;1.87;;;;;;;-146.25;100.00;57403.91;4898051;29;20227;-85
2023/10/07 00:17:43;;;;;;;1.83;1.70;;;;;;;-146.25;100.00;57403.91;4919669;29;20230;-84
2023/10/07 00:20:17;;;;;;;2.17;1.97;;;;;;;-146.25;100.00;57403.91;4905127;29;20231;-85
2023/10/07 00:22:49;;;;;;;2.70;2.33;;;;;;;-146.25;100.00;57403.91;4910891;29;20204;-86
2023/10/07 00:25:19;;;;;;;2.20;2.00;;;;;;;-146.25;100.00;57403.91;4905323;29;20219;-85
2023/10/07 00:27:49;;;;;;;2.30;1.60;;;;;;;-146.25;100.00;57403.91;4912185;29;20211;-85
2023/10/07 00:30:22;;;;;;;2.63;2.03;;;;;;;-146.25;100.00;57403.91;4921291;29;20208;-85
2023/10/07 00:32:51;;;;;;;2.80;2.30;;;;;;;-146.25;100.00;57403.91;4916499;29;20229;-85
2023/10/07 00:35:20;;;;;;;2.10;1.63;;;;;;;-146.25;100.00;57403.91;4903154;29;20219;-86
2023/10/07 00:37:50;;;;;;;2.17;2.07;;;;;;;-146.25;100.00;57403.91;4914357;29;20297;-85
2023/10/07 00:40:31;;;;;;;1.97;1.87;;;;;;;-146.25;100.00;57403.91;4926002;29;20231;-85
2023/10/07 00:43:06;;;;;;;4.50;1.80;;;;;;;-146.25;100.00;57403.91;4916787;29;20748;-85
2023/10/07 00:45:37;;;;;;;2.00;1.90;;;;;;;-146.25;100.00;57403.91;4919435;29;20211;-84
2023/10/07 00:48:11;;;;;;;1.97;1.67;;;;;;;-146.25;100.00;57403.91;4906505;29;20236;-85
2023/10/07 00:50:42;;;;;;;3.23;2.07;;;;;;;-146.25;100.00;57403.91;4918909;29;20196;-84
2023/10/07 00:53:24;;;;;;;2.27;2.07;;;;;;;-146.25;100.00;57403.91;4923056;29;20231;-85
2023/10/07 00:55:53;;;;;;;3.10;2.07;;;;;;;-146.25;100.00;57403.91;4909989;29;20204;-85
2023/10/07 00:58:28;;;;;;;2.50;1.83;;;;;;;-146.25;100.00;57403.91;4924902;29;20242;-86
2023/10/07 01:01:05;;;;;;;1.80;1.70;;;;;;;-146.25;100.00;57403.91;4924266;29;20212;-86
2023/10/07 01:03:47;;;;;;;2.53;1.53;;;;;;;-146.25;100.00;57403.91;4915584;29;20228;-85
2023/10/07 01:06:25;;;;;;;2.97;2.03;;;;;;;-146.25;100.00;57403.91;4915124;29;20204;-84
2023/10/07 01:09:07;;;;;;;1.77;1.67;;;;;;;-146.25;100.00;57403.91;4925067;29;20210;-86
2023/10/07 01:11:47;;;;;;;1.40;1.40;;;;;;;-146.25;100.00;57403.91;4915941;29;20200;-84
2023/10/07 01:14:15;;;;;;;3.77;2.93;;;;;;;-146.25;100.00;57403.91;4913083;29;20311;-85
2023/10/07 01:16:56;;;;;;;1.57;1.57;;;;;;;-146.25;100.00;57403.91;4904982;29;20228;-85
2023/10/07 01:19:52;;;;;;;1.83;1.73;;;;;;;-146.25;100.00;57403.91;4896446;29;20196;-85
2023/10/07 01:22:35;;;;;;;2.00;1.80;;;;;;;-146.25;100.00;57403.91;4907116;29;20230;-85
2023/10/07 01:25:06;;;;;;;2.27;1.87;;;;;;;-146.25;100.00;57403.91;4923415;29;20231;-85
2023/10/07 01:27:45;;;;;;;4.33;2.07;;;;;;;-146.25;100.00;57403.91;4914680;29;20212;-85
2023/10/07 01:30:17;;;;;;;6.70;1.93;;;;;;;-146.25;100.00;57403.91;4908485;29;20709;-84
2023/10/07 01:32:54;;;;;;;2.87;1.83;;;;;;;-146.25;100.00;57403.91;4921727;29;20227;-84
2023/10/07 01:35:32;;;;;;;3.03;2.00;;;;;;;-146.25;100.00;57403.91;4922248;29;20693;-85
2023/10/07 01:38:18;;;;;;;2.07;1.90;;;;;;;-146.25;100.00;57403.91;4919741;29;20207;-85
2023/10/07 01:41:06;;;;;;;2.67;2.47;;;;;;;-146.25;100.00;57403.91;4909600;29;20208;-85
2023/10/07 01:43:48;;;;;;;2.83;1.50;;;;;;;-146.25;100.00;57403.91;4910275;29;20240;-85
2023/10/07 01:46:19;;;;;;;2.17;2.03;;;;;;;-146.25;100.00;57403.91;4903784;29;20209;-85
2023/10/07 01:48:57;;;;;;;2.60;2.23;;;;;;;-146.25;100.00;57403.91;4903789;29;20200;-86
2023/10/07 01:51:28;;;;;;;3.40;1.90;;;;;;;-146.25;100.00;57403.91;4912315;29;20218;-85
2023/10/07 01:54:08;;;;;;;3.00;2.70;;;;;;;-146.25;100.00;57403.91;4919843;29;20232;-86
2023/10/07 01:56:40;;;;;;;1.83;1.73;;;;;;;-146.25;100.00;57403.91;4919297;29;20565;-86
2023/10/07 01:59:17;;;;;;;3.37;2.27;;;;;;;-146.25;100.00;57403.91;4928763;29;20222;-86
2023/10/07 02:01:58;;;;;;;2.53;1.70;;;;;;;-146.25;100.00;57403.91;4925336;29;20224;-85
2023/10/07 02:04:28;;;;;;;2.23;2.13;;;;;;;-146.25;100.00;57403.91;4923325;29;20265;-84
2023/10/07 02:06:56;;;;;;;1.97;1.83;;;;;;;-146.25;100.00;57403.91;4931417;29;20195;-85
2023/10/07 02:09:40;;;;;;;3.77;2.60;;;;;;;-146.25;100.00;57403.91;4927160;29;20207;-85
2023/10/07 02:12:16;;;;;;;2.17;2.00;;;;;;;-146.25;100.00;57403.91;4924763;29;20204;-84
2023/10/07 02:14:50;;;;;;;1.70;1.60;;;;;;;-146.25;100.00;57403.91;4927559;29;20228;-85
2023/10/07 02:17:25;;;;;;;2.87;1.77;;;;;;;-146.25;100.00;57403.91;4925522;29;20639;-86
2023/10/07 02:20:22;;;;;;;2.60;1.93;;;;;;;-146.25;100.00;57403.91;4913229;29;20209;-84
2023/10/07 02:22:57;;;;;;;2.27;1.93;;;;;;;-146.25;100.00;57403.91;4914533;29;20271;-86
2023/10/07 02:25:31;;;;;;;2.50;2.30;;;;;;;-146.25;100.00;57403.91;4921851;29;20203;-84
2023/10/07 02:28:05;;;;;;;4.73;2.07;;;;;;;-146.25;100.00;57403.91;4916829;29;20219;-84
2023/10/07 02:30:50;;;;;;;2.47;1.90;;;;;;;-146.25;100.00;57403.91;4929010;29;20215;-85
2023/10/07 02:33:21;;;;;;;1.97;1.87;;;;;;;-146.25;100.00;57403.91;4908976;29;20232;-86
2023/10/07 02:35:55;;;;;;;4.37;1.70;;;;;;;-146.25;100.00;57403.91;4923481;29;20204;-86
2023/10/07 02:38:35;;;;;;;2.20;2.00;;;;;;;-146.25;100.00;57403.91;4923471;29;20208;-84
2023/10/07 02:41:16;;;;;;;2.23;2.00;;;;;;;-146.25;100.00;57403.91;4922294;29;20216;-84
2023/10/07 02:43:48;;;;;;;1.43;1.43;;;;;;;-146.25;100.00;57403.91;4940074;29;20242;-85
2023/10/07 02:46:32;;;;;;;2.10;1.77;;;;;;;-146.25;100.00;57403.91;4931527;29;20203;-85
2023/10/07 02:49:09;;;;;;;3.60;2.00;;;;;;;-146.25;100.00;57403.91;4920618;29;20208;-85
2023/10/07 02:51:47;;;;;;;3.00;2.53;;;;;;;-146.25;100.00;57403.91;4915050;29;20216;-85
2023/10/07 02:54:21;;;;;;;3.70;1.93;;;;;;;-146.25;100.00;57403.91;4926554;29;20223;-85
2023/10/07 02:56:55;;;;;;;2.60;2.23;;;;;;;-146.25;100.00;57403.91;4917075;29;20215;-85
2023/10/07 02:59:27;;;;;;;2.90;2.17;;;;;;;-146.25;100.00;57403.91;4921261;29;20183;-84
2023/10/07 03:02:21;;;;;;;1.90;1.80;;;;;;;-146.25;100.00;57403.91;4927753;29;20254;-84
2023/10/07 03:05:13;;;;;;;3.43;2.03;;;;;;;-146.25;100.00;57403.91;4906092;29;20228;-85
2023/10/07 03:07:49;;;;;;;2.10;2.00;;;;;;;-146.25;100.00;57403.91;4914230;29;20219;-86
2023/10/07 03:10:30;;;;;;;12.30;2.27;;;;;;;-146.25;100.00;57403.91;4922822;29;20227;-85
2023/10/07 03:13:03;;;;;;;3.27;1.43;;;;;;;-146.25;100.00;57403.91;4920436;29;20255;-86
2023/10/07 03:15:45;;;;;;;2.40;1.70;;;;;;;-146.25;100.00;57403.91;4921495;29;20239;-84
2023/10/07 03:18:30;;;;;;;4.43;1.80;;;;;;;-146.25;100.00;57403.91;4913778;29;20212;-85
2023/10/07 03:21:06;;;;;;;2.03;1.83;;;;;;;-146.25;100.00;57403.91;4898116;29;20212;-84
2023/10/07 03:23:45;;;;;;;2.30;2.20;;;;;;;-146.25;100.00;57403.91;4914803;29;20256;-86
2023/10/07 03:26:18;;;;;;;2.73;2.50;;;;;;;-146.25;100.00;57403.91;4909888;29;20724;-85
2023/10/07 03:28:55;;;;;;;2.90;2.23;;;;;;;-146.25;100.00;57403.91;4909350;29;20213;-85
2023/10/07 03:31:35;;;;;;;1.70;1.60;;;;;;;-146.25;100.00;57403.91;4907877;29;20224;-85
2023/10/07 03:34:12;;;;;;;2.63;2.17;;;;;;;-146.25;100.00;57403.91;4913896;29;20242;-85
2023/10/07 03:36:57;;;;;;;3.47;1.73;;;;;;;-146.25;100.00;57403.91;4911366;29;20207;-85
2023/10/07 03:39:37;;;;;;;3.43;1.50;;;;;;;-146.25;100.00;57403.91;4913634;29;20676;-86
2023/10/07 03:42:06;;;;;;;3.27;2.13;;;;;;;-146.25;100.00;57403.91;4919625;29;20358;-86
2023/10/07 03:44:39;;;;;;;2.10;1.83;;;;;;;-146.25;100.00;57403.91;4915314;29;20242;-85
2023/10/07 03:47:15;;;;;;;3.17;2.53;;;;;;;-146.25;100.00;57403.91;4911513;29;20232;-86
2023/10/07 03:49:52;;;;;;;2.07;1.80;;;;;;;-146.25;100.00;57403.91;4906434;29;20212;-85
2023/10/07 03:52:27;;;;;;;2.43;2.10;;;;;;;-146.25;100.00;57403.91;4913673;29;20272;-85
2023/10/07 03:54:59;;;;;;;6.23;3.10;;;;;;;-146.25;100.00;57403.91;4915357;29;20651;-84
2023/10/07 03:57:29;;;;;;;6.63;3.50;;;;;;;-146.25;100.00;57403.91;4911578;29;20193;-86
2023/10/07 04:00:02;;;;;;;3.17;2.73;;;;;;;-146.25;100.00;57403.91;4913008;29;20218;-85
2023/10/07 04:02:37;;;;;;;9.63;5.90;;;;;;;-146.25;100.00;57403.91;4921635;29;20235;-85
2023/10/07 04:05:26;;;;;;;8.00;3.13;;;;;;;-146.25;100.00;57403.91;4914873;29;20203;-86
2023/10/07 04:07:54;;;;;;;3.70;2.63;;;;;;;-146.25;100.00;57403.91;4912413;29;20215;-86
2023/10/07 04:10:24;;;;;;;5.80;2.40;;;;;;;-146.25;100.00;57403.91;4915457;29;20215;-85
2023/10/07 04:12:59;;;;;;;2.93;2.30;;;;;;;-146.25;100.00;57403.91;4924278;29;20226;-86
2023/10/07 04:15:51;;;;;;;2.60;2.27;;;;;;;-146.25;100.00;57403.91;4917054;29;20264;-85
2023/10/07 04:18:34;;;;;;;3.40;2.83;;;;;;;-146.25;100.00;57403.91;4905283;29;20283;-85
2023/10/07 04:21:06;;;;;;;10.43;2.90;;;;;;;-146.25;100.00;57403.91;4923498;29;20231;-85
2023/10/07 04:23:45;;;;;;;2.83;2.57;;;;;;;-146.25;100.00;57403.91;4917585;29;20205;-85
2023/10/07 04:26:19;;;;;;;4.60;2.23;;;;;;;-146.25;100.00;57403.91;4922131;29;20283;-85
2023/10/07 04:28:53;;;;;;;3.60;2.10;;;;;;;-146.25;100.00;57403.91;4904170;29;20298;-85
2023/10/07 04:31:39;;;;;;;2.30;2.10;;;;;;;-146.25;100.00;57403.91;4906027;29;20205;-85
2023/10/07 04:34:15;;;;;;;4.47;2.43;;;;;;;-146.25;100.00;57403.91;4914576;29;20299;-86
2023/10/07 04:39:37;;;;;;;2.73;2.53;;;;;;;-146.25;100.00;57403.91;4921731;29;20211;-85
2023/10/07 04:42:06;;;;;;;6.30;2.63;;;;;;;-146.25;100.00;57403.91;4918241;29;20204;-85
2023/10/07 04:47:35;;;;;;;3.67;2.40;;;;;;;-146.25;100.00;57403.91;4897458;29;20303;-86
2023/10/07 04:50:33;;;;;;;2.70;2.53;;;;;;;-146.25;100.00;57403.91;4921240;29;20648;-83
2023/10/07 04:53:03;;;;;;;3.70;3.20;;;;;;;-146.25;100.00;57403.91;4920269;29;20222;-85
2023/10/07 04:55:41;;;;;;;6.20;3.30;;;;;;;-146.25;100.00;57403.91;4916440;29;20315;-85
2023/10/07 04:58:17;;;;;;;4.20;3.10;;;;;;;-146.25;100.00;57403.91;4909152;29;20231;-87
2023/10/07 05:03:43;;;;;;;6.50;2.70;;;;;;;-146.25;100.00;57403.91;4930606;23;20258;-84
2023/10/07 05:06:19;;;;;;;3.20;2.97;;;;;;;-146.25;100.00;57403.91;4923531;29;20203;-86
2023/10/07 05:08:51;;;;;;;2.87;2.67;;;;;;;-146.25;100.00;57403.91;4916660;29;20196;-85
2023/10/07 05:11:20;;;;;;;4.67;3.40;;;;;;;-146.25;100.00;57403.91;4925421;29;20240;-86
2023/10/07 05:13:49;;;;;;;6.70;3.17;;;;;;;-146.25;100.00;57403.91;4935957;29;20244;-85
2023/10/07 05:16:22;;;;;;;4.87;3.03;;;;;;;-146.25;100.00;57403.91;4938752;29;20190;-86
2023/10/07 05:18:53;;;;;;;2.83;2.60;;;;;;;-146.25;100.00;57403.91;4925872;29;20224;-84
2023/10/07 05:21:26;;;;;;;5.10;2.92;;;;;;;-146.25;100.00;57403.91;4913740;29;20206;-85
2023/10/07 05:24:01;;;;;;;3.33;3.03;;;;;;;-146.25;100.00;57403.91;4924615;29;20669;-85
2023/10/07 05:26:40;;;;;;;3.30;3.00;;;;;;;-146.25;100.00;57403.91;4925603;29;20285;-84
2023/10/07 05:29:12;;;;;;;4.28;3.50;;;;;;;-146.25;100.00;57403.91;4931148;29;20211;-85
2023/10/07 05:31:44;;;;;;;5.20;3.20;;;;;;;-146.25;100.00;57403.91;4922906;29;20207;-85
2023/10/07 05:34:28;;;;;;;3.90;3.30;;;;;;;-146.25;100.00;57403.91;4918309;29;20331;-87
2023/10/07 05:37:11;;;;;;;6.95;4.10;;;;;;;-146.25;100.00;57403.91;4937489;29;20206;-85
2023/10/07 05:42:32;;;;;;;6.30;3.80;;;;;;;-146.25;100.00;57403.91;4926212;23;20268;-86
2023/10/07 05:45:10;;;;;;;3.97;3.50;;;;;;;-146.25;100.00;57403.91;4928787;29;20235;-85
2023/10/07 05:47:38;;;;;;;4.32;3.40;;;;;;;-146.25;100.00;57403.91;4915618;29;20200;-86
2023/10/07 05:50:10;;;;;;;9.48;3.33;;;;;;;-146.25;100.00;57403.91;4915918;29;20246;-85
2023/10/07 05:55:28;;;;;;;7.97;3.50;;;;;;;-146.25;100.00;57403.91;4908350;29;20244;-86
2023/10/07 05:57:58;;;;;;;3.90;3.70;;;;;;;-146.25;100.00;57403.91;4926255;29;20223;-86
2023/10/07 06:00:31;;;;;;;4.60;3.45;;;;;;;-146.25;100.00;57403.91;4917940;29;20293;-87
2023/10/07 06:03:06;;;;;;;8.65;4.35;;;;;;;-146.25;100.00;57403.91;4913467;29;20684;-87
2023/10/07 06:05:59;;;;;;;4.60;3.38;;;;;;;-146.25;100.00;57403.91;4910815;29;20204;-87
2023/10/07 06:11:29;;;;;;;3.45;3.25;;;;;;;-146.25;100.00;57403.91;4949752;23;20235;-86
2023/10/07 06:14:04;;;;;;;7.75;4.65;;;;;;;-146.25;100.00;57403.91;4908277;29;20233;-84
2023/10/07 06:16:36;;;;;;;4.10;3.83;;;;;;;-146.25;100.00;57403.91;4912764;29;20287;-86
2023/10/07 06:19:11;;;;;;;5.38;3.75;;;;;;;-146.25;100.00;57403.91;4918229;29;20208;-86
2023/10/07 06:21:50;;;;;;;6.75;3.88;;;;;;;-146.25;100.00;57403.91;4915583;29;20226;-87
2023/10/07 06:24:23;;;;;;;4.50;4.10;;;;;;;-146.25;100.00;57403.91;4923489;29;20212;-87
2023/10/07 06:26:54;;;;;;;4.18;3.85;;;;;;;-146.25;100.00;57403.91;4923718;29;20689;-88
2023/10/07 06:32:41;;;;;;;5.75;3.45;;;;;;;-146.25;100.00;57403.91;4917663;29;20216;-87
2023/10/07 06:35:14;;;;;;;10.50;4.43;;;;;;;-146.25;100.00;57403.91;4921856;29;20628;-87
2023/10/07 06:37:58;;;;;;;5.00;3.88;;;;;;;-146.25;100.00;57403.91;4922875;29;20216;-86
2023/10/07 06:40:28;;;;;;;4.05;3.67;;;;;;;-146.25;100.00;57403.91;4918853;29;20299;-86
2023/10/07 06:42:59;;;;;;;4.03;3.72;;;;;;;-146.25;100.00;57403.91;4916455;29;20208;-86
2023/10/07 06:45:38;;;;;;;3.58;3.38;;;;;;;-146.25;100.00;57403.91;4915164;29;20650;-84
2023/10/07 06:48:12;;;;;;;9.18;4.38;;;;;;;-146.25;100.00;57403.91;4915105;29;20211;-85
2023/10/07 06:50:43;;;;;;;7.20;4.18;;;;;;;-146.25;100.00;57403.91;4911468;29;20227;-86
2023/10/07 06:53:22;;;;;;;4.75;4.30;;;;;;;-146.25;100.00;57403.91;4926660;29;20207;-86
2023/10/07 06:55:52;;;;;;;8.00;3.75;;;;;;;-146.25;100.00;57403.91;4921288;29;20235;-85
2023/10/07 06:58:23;;;;;;;5.10;3.38;;;;;;;-146.25;100.00;57403.91;4926745;29;20208;-83
2023/10/07 07:00:56;;;;;;;5.35;3.60;;;;;;;-146.25;100.00;57403.91;4924301;29;20220;-85
2023/10/07 07:03:27;;;;;;;3.85;3.28;;;;;;;-146.25;100.00;57403.91;4897743;29;20712;-84
2023/10/07 07:05:58;;;;;;;5.82;3.10;;;;;;;-146.25;100.00;57403.91;4889709;29;20229;-85
2023/10/07 07:08:34;;;;;;;3.78;3.45;;;;;;;-146.25;100.00;57403.91;4893581;29;20205;-85
2023/10/07 07:11:10;;;;;;;3.60;3.35;;;;;;;-146.25;100.00;57403.91;4894493;29;20224;-87
2023/10/07 07:13:43;;;;;;;4.05;3.10;;;;;;;-146.25;100.00;57403.91;4894257;29;20215;-84
2023/10/07 07:16:24;;;;;;;4.68;3.45;;;;;;;-146.25;100.00;57403.91;4893771;29;20241;-86
2023/10/07 07:18:59;;;;;;;3.92;3.63;;;;;;;-146.25;100.00;57403.91;4894660;29;20849;-86
2023/10/07 07:21:32;;;;;;;4.25;3.45;;;;;;;-146.25;100.00;57403.91;4894271;29;20230;-85
2023/10/07 07:24:01;;;;;;;12.05;3.58;;;;;;;-146.25;100.00;57403.91;4894923;29;20230;-85
2023/10/07 07:26:32;;;;;;;3.40;3.10;;;;;;;-146.25;100.00;57403.91;4891988;29;20212;-85
2023/10/07 07:29:05;;;;;;;4.07;3.65;;;;;;;-146.25;100.00;57403.91;4877549;29;20233;-85
2023/10/07 07:31:40;;;;;;;4.18;3.85;;;;;;;-146.25;100.00;57403.91;4893607;29;20264;-85
2023/10/07 07:34:21;;;;;;;7.43;3.90;;;;;;;-146.25;100.00;57403.91;4892223;29;20682;-84
2023/10/07 07:36:56;;;;;;;4.75;3.47;;;;;;;-146.25;100.00;57403.91;4888034;29;20217;-85
2023/10/07 07:39:30;;;;;;;5.85;3.88;;;;;;;-146.25;100.00;57403.91;4882390;29;20215;-85
2023/10/07 07:42:15;;;;;;;5.00;4.18;;;;;;;-146.25;100.00;57403.91;4892320;29;20216;-84
2023/10/07 07:44:57;;;;;;;4.47;4.18;;;;;;;-146.25;100.00;57403.91;4892674;29;20204;-84
2023/10/07 07:47:30;;;;;;;4.72;4.18;;;;;;;-146.25;100.00;57403.91;4906478;29;20268;-86
2023/10/07 07:50:01;;;;;;;4.63;4.05;;;;;;;-146.25;100.00;57403.91;4888095;29;20236;-86
2023/10/07 07:52:32;;;;;;;4.15;3.85;;;;;;;-146.25;100.00;57403.91;4897533;29;20300;-86
2023/10/07 07:55:01;;;;;;;4.10;3.80;;;;;;;-146.25;100.00;57403.91;4887219;29;20236;-85
2023/10/07 07:57:36;;;;;;;6.78;4.50;;;;;;;-146.25;100.00;57403.91;4893949;29;20691;-84
2023/10/07 08:00:10;;;;;;;4.25;3.95;;;;;;;-146.25;100.00;57403.91;4894217;29;20222;-86
2023/10/07 08:02:41;;;;;;;4.45;4.00;;;;;;;-146.25;100.00;57403.91;4894038;29;20628;-85
2023/10/07 08:05:13;;;;;;;7.22;5.15;;;;;;;-146.25;100.00;57403.91;4893776;29;20204;-85
2023/10/07 08:07:46;;;;;;;4.90;4.40;;;;;;;-146.25;100.00;57403.91;4893931;29;20251;-83
2023/10/07 08:10:20;;;;;;;5.18;4.70;;;;;;;-146.25;100.00;57403.91;4893206;29;20245;-85
2023/10/07 08:12:51;;;;;;;6.65;4.90;;;;;;;-146.25;100.00;57403.91;4892774;29;20240;-87
2023/10/07 08:15:23;;;;;;;4.72;4.32;;;;;;;-146.25;100.00;57403.91;4893055;29;20247;-85
2023/10/07 08:17:56;;;;;;;5.43;4.93;;;;;;;-146.25;100.00;57403.91;4885345;29;20309;-85
2023/10/07 08:20:33;;;;;;;5.75;5.13;;;;;;;-146.25;100.00;57403.91;4893420;29;20733;-85
2023/10/07 08:23:07;;;;;;;7.75;5.15;;;;;;;-146.25;100.00;57403.91;4893865;29;20220;-86
2023/10/07 08:25:45;;;;;;;6.80;4.90;;;;;;;-146.25;100.00;57403.91;4878397;29;20205;-85
2023/10/07 08:28:23;;;;;;;7.25;4.63;;;;;;;-146.25;100.00;57403.91;4878983;29;20287;-86
2023/10/07 08:30:53;;;;;;;7.13;4.72;;;;;;;-146.25;100.00;57403.91;4891262;29;20223;-86
2023/10/07 08:33:23;;;;;;;5.63;4.90;;;;;;;-146.25;100.00;57403.91;4894472;29;20213;-85
2023/10/07 08:35:55;;;;;;;10.43;5.35;;;;;;;-146.25;100.00;57403.91;4898541;29;20243;-84
2023/10/07 08:38:29;;;;;;;5.22;4.82;;;;;;;-146.25;100.00;57403.91;4913458;29;20276;-84
2023/10/07 08:41:07;;;;;;;5.78;4.93;;;;;;;-146.25;100.00;57403.91;4902411;29;20230;-84
2023/10/07 08:43:43;;;;;;;11.48;5.55;;;;;;;-146.25;100.00;57403.91;4895046;29;20215;-85
2023/10/07 08:46:16;;;;;;;6.60;5.13;;;;;;;-146.25;100.00;57403.91;4894611;29;20748;-86
2023/10/07 08:49:01;;;;;;;5.75;4.95;;;;;;;-146.25;100.00;57403.91;4895017;29;20209;-87
2023/10/07 08:51:39;;;;;;;6.57;4.88;;;;;;;-146.25;100.00;57403.91;4873536;29;20662;-87
2023/10/07 08:54:18;;;;;;;6.97;5.40;;;;;;;-146.25;100.00;57403.91;4878353;29;20243;-86
2023/10/07 08:56:57;;;;;;;7.32;5.55;;;;;;;-146.25;100.00;57403.91;4876644;29;20236;-84
2023/10/07 08:59:30;;;;;;;5.03;4.60;;;;;;;-146.25;100.00;57403.91;4878119;29;20252;-84
2023/10/07 09:02:03;;;;;;;8.90;4.50;;;;;;;-146.25;100.00;57403.91;4876331;29;20245;-85
2023/10/07 09:04:34;;;;;;;4.90;4.55;;;;;;;-146.25;100.00;57403.91;4883224;29;20733;-83
2023/10/07 09:07:08;;;;;;;8.70;5.35;;;;;;;-146.25;100.00;57403.91;4881724;29;20224;-83
2023/10/07 09:09:43;;;;;;;6.57;5.18;;;;;;;-146.25;100.00;57403.91;4876836;29;20232;-86
2023/10/07 09:12:15;;;;;;;8.25;5.47;;;;;;;-146.25;100.00;57403.91;4883390;29;20236;-84
2023/10/07 09:14:55;;;;;;;5.85;5.00;;;;;;;-146.25;100.00;57403.91;4896702;29;20336;-83
2023/10/07 09:17:26;;;;;;;5.90;5.28;;;;;;;-146.25;100.00;57403.91;4904421;29;20225;-85
2023/10/07 09:19:58;;;;;;;6.50;4.85;;;;;;;-146.25;100.00;57403.91;4914817;29;20239;-85
2023/10/07 09:22:34;;;;;;;6.13;5.10;;;;;;;-146.25;100.00;57403.91;4895409;29;20228;-86
2023/10/07 09:25:16;;;;;;;8.93;4.75;;;;;;;-146.25;100.00;57403.91;4889597;29;20248;-86
2023/10/07 09:27:59;;;;;;;4.55;4.22;;;;;;;-146.25;100.00;57403.91;4899102;29;20225;-84
2023/10/07 09:30:48;;;;;;;9.02;4.75;;;;;;;-146.25;100.00;57403.91;4900391;29;20665;-85
2023/10/07 09:33:19;;;;;;;4.88;4.45;;;;;;;-146.25;100.00;57403.91;4895157;29;20296;-84
2023/10/07 09:36:22;;;;;;;6.47;4.75;;;;;;;-146.25;100.00;57403.91;4900028;29;20317;-85
2023/10/07 09:38:43;;;;;;;6.82;4.75;;;;;;;-146.25;100.00;57403.91;4891535;29;20236;-85
2023/10/07 09:41:23;;;;;;;5.55;4.35;;;;;;;-146.25;100.00;57403.91;4886855;29;20232;-85
2023/10/07 09:43:56;;;;;;;14.20;4.90;;;;;;;-146.25;100.00;57403.91;4879514;29;20265;-86
2023/10/07 09:46:27;;;;;;;8.55;4.78;;;;;;;-146.25;100.00;57403.91;4886544;29;20609;-86
2023/10/07 09:48:57;;;;;;;6.38;4.97;;;;;;;-146.25;100.00;57403.91;4888796;29;20805;-85
2023/10/07 09:51:34;;;;;;;7.60;5.10;;;;;;;-146.25;100.00;57403.91;4881256;29;20224;-85
2023/10/07 09:54:26;;;;;;;4.78;4.38;;;;;;;-146.25;100.00;57403.91;4891645;29;20233;-86
2023/10/07 09:57:19;;;;;;;5.78;4.43;;;;;;;-146.25;100.00;57403.91;4891603;29;20245;-85
2023/10/07 10:00:38;;;;;;;13.00;4.50;;;;;;;-146.25;100.00;57403.91;4898639;29;20228;-83
2023/10/07 10:03:30;;;;;;;4.30;4.00;;;;;;;-146.25;100.00;57403.91;4890341;29;20822;-84
2023/10/07 10:06:26;;;;;;;4.82;3.67;;;;;;;-146.25;100.00;57403.91;4888079;29;20217;-86
2023/10/07 10:17:39;;;;;;;4.63;4.22;;;;;;;-146.25;100.00;57403.91;4894355;29;20238;-86
2023/10/07 10:20:27;;;;;;;5.95;3.78;;;;;;;-146.25;100.00;57403.91;4895416;29;20269;-87
2023/10/07 10:22:57;;;;;;;5.55;3.72;;;;;;;-146.25;100.00;57403.91;4897780;29;20225;-86
2023/10/07 10:25:36;;;;;;;4.13;3.78;;;;;;;-146.25;100.00;57403.91;4902073;29;20194;-85
2023/10/07 10:28:08;;;;;;;4.78;4.18;;;;;;;-146.25;100.00;57403.91;4902606;29;20272;-83
2023/10/07 10:30:53;;;;;;;4.90;3.90;;;;;;;-146.25;100.00;57403.91;4903273;29;20217;-85
2023/10/07 10:33:25;;;;;;;5.07;4.53;;;;;;;-146.25;100.00;57403.91;4900473;29;20454;-85
2023/10/07 10:35:58;;;;;;;4.47;3.90;;;;;;;-146.25;100.00;57403.91;4901921;29;20242;-87
2023/10/07 10:38:37;;;;;;;4.63;4.18;;;;;;;-146.25;100.00;57403.91;4884020;29;20457;-87
2023/10/07 10:41:10;;;;;;;9.27;3.88;;;;;;;-146.25;100.00;57403.91;4882086;29;20212;-87
2023/10/07 10:43:42;;;;;;;3.97;3.67;;;;;;;-146.25;100.00;57403.91;4882129;29;20233;-87
2023/10/07 10:46:17;;;;;;;7.70;4.60;;;;;;;-146.25;100.00;57403.91;4881143;29;20210;-87
2023/10/07 10:48:54;;;;;;;4.40;4.00;;;;;;;-146.25;100.00;57403.91;4896508;29;20208;-86
2023/10/07 10:51:29;;;;;;;5.75;3.75;;;;;;;-146.25;100.00;57403.91;4896685;29;20743;-85
2023/10/07 10:54:01;;;;;;;10.45;3.88;;;;;;;-146.25;100.00;57403.91;4880705;29;20193;-86
2023/10/07 10:56:33;;;;;;;4.45;3.75;;;;;;;-146.25;100.00;57403.91;4883310;29;20249;-87
2023/10/07 10:59:06;;;;;;;5.47;3.35;;;;;;;-146.25;100.00;57403.91;4880989;29;20588;-87
2023/10/07 11:01:43;;;;;;;5.67;4.40;;;;;;;-146.25;100.00;57403.91;4880282;29;20458;-87
2023/10/07 11:04:19;;;;;;;4.20;3.22;;;;;;;-146.25;100.00;57403.91;4880499;29;20462;-86
2023/10/07 11:06:51;;;;;;;5.97;3.83;;;;;;;-146.25;100.00;57403.91;4880047;29;20500;-87
2023/10/07 11:09:33;;;;;;;5.35;3.70;;;;;;;-146.25;100.00;57403.91;4881155;29;20540;-86
2023/10/07 11:12:12;;;;;;;4.18;3.38;;;;;;;-146.25;100.00;57403.91;4880794;29;20278;-87
2023/10/07 11:14:42;;;;;;;6.82;3.63;;;;;;;-146.25;100.00;57403.91;4883307;29;20205;-87
2023/10/07 11:17:14;;;;;;;3.00;2.85;;;;;;;-146.25;100.00;57403.91;4885052;29;20243;-87
2023/10/07 11:19:52;;;;;;;4.20;3.33;;;;;;;-146.25;100.00;57403.91;4884701;29;20208;-87
2023/10/07 11:22:22;;;;;;;9.90;3.17;;;;;;;-146.25;100.00;57403.91;4890777;29;20212;-87
2023/10/07 11:25:03;;;;;;;3.13;2.92;;;;;;;-146.25;100.00;57403.91;4901344;29;20204;-86
2023/10/07 11:27:37;;;;;;;4.05;3.08;;;;;;;-146.25;100.00;57403.91;4890657;29;20213;-87
2023/10/07 11:30:11;;;;;;;7.13;3.25;;;;;;;-146.25;100.00;57403.91;4881921;29;20209;-87
2023/10/07 11:32:43;;;;;;;4.10;2.97;;;;;;;-146.25;100.00;57403.91;4881596;29;20193;-87
2023/10/07 11:35:25;;;;;;;2.90;2.60;;;;;;;-146.25;100.00;57403.91;4881101;29;20220;-87
2023/10/07 11:38:02;;;;;;;4.70;2.95;;;;;;;-146.25;100.00;57403.91;4880724;29;20361;-86
2023/10/07 11:40:34;;;;;;;2.95;2.70;;;;;;;-146.25;100.00;57403.91;4880217;29;20344;-87
2023/10/07 11:43:08;;;;;;;3.40;2.92;;;;;;;-146.25;100.00;57403.91;4880340;29;20277;-87
2023/10/07 11:45:47;;;;;;;3.85;2.47;;;;;;;-146.25;100.00;57403.91;4880789;29;20206;-86
2023/10/07 11:48:19;;;;;;;2.78;2.60;;;;;;;-146.25;100.00;57403.91;4879890;29;20305;-86
2023/10/07 11:50:49;;;;;;;3.17;2.97;;;;;;;-146.25;100.00;57403.91;4879392;29;20289;-86
2023/10/07 11:53:20;;;;;;;2.83;2.63;;;;;;;-146.25;100.00;57403.91;4879858;29;20305;-86
2023/10/07 11:55:49;;;;;;;5.45;2.88;;;;;;;-146.25;100.00;57403.91;4879291;29;20233;-87
2023/10/07 11:58:23;;;;;;;3.47;2.50;;;;;;;-146.25;100.00;57403.91;4880309;29;20220;-87
2023/10/07 12:00:55;;;;;;;3.80;2.67;;;;;;;-146.25;100.00;57403.91;4863096;29;20205;-87
2023/10/07 12:03:26;;;;;;;3.00;2.47;;;;;;;-146.25;100.00;57403.91;4879617;29;20604;-87
2023/10/07 12:05:58;;;;;;;3.05;2.85;;;;;;;-146.25;100.00;57403.91;4880352;29;20201;-87
2023/10/07 12:08:26;;;;;;;4.60;2.55;;;;;;;-146.25;100.00;57403.91;4880429;29;20265;-87
2023/10/07 12:10:57;;;;;;;5.55;2.40;;;;;;;-146.25;100.00;57403.91;4879412;29;20261;-86
2023/10/07 12:13:32;;;;;;;3.20;2.95;;;;;;;-146.25;100.00;57403.91;4880195;29;20569;-87
2023/10/07 12:16:06;;;;;;;2.75;2.55;;;;;;;-146.25;100.00;57403.91;4879174;29;20236;-86
2023/10/07 12:18:39;;;;;;;3.05;2.75;;;;;;;-146.25;100.00;57403.91;4879270;29;20613;-88